createdAt,value
2023-05-15T00:00:53.133Z,22.50
2023-05-15T00:03:21.773Z,22.60
2023-05-15T00:05:50.029Z,22.70
2023-05-15T00:08:17.986Z,22.60
2023-05-15T00:10:54.077Z,22.80
2023-05-15T00:13:28.581Z,22.80
2023-05-15T00:15:56.583Z,22.70
2023-05-15T00:18:24.711Z,22.70
2023-05-15T00:20:53.412Z,22.60
2023-05-15T00:23:21.440Z,22.20
2023-05-15T00:25:50.834Z,22.30
2023-05-15T00:28:18.816Z,22.60
2023-05-15T00:30:46.833Z,22.60
2023-05-15T00:33:14.809Z,22.50
2023-05-15T00:35:42.884Z,22.70
2023-05-15T00:38:10.841Z,22.40
2023-05-15T00:40:39.723Z,22.50
2023-05-15T00:43:11.021Z,22.60
2023-05-15T00:45:42.110Z,22.40
2023-05-15T00:48:11.342Z,22.40
2023-05-15T00:50:42.336Z,22.60
2023-05-15T00:53:10.842Z,22.70
2023-05-15T00:55:39.374Z,22.60
2023-05-15T00:58:11.362Z,22.50
2023-05-15T01:00:40.078Z,22.60
2023-05-15T01:03:08.309Z,22.20
2023-05-15T01:05:37.025Z,22.50
2023-05-15T01:08:14.573Z,22.40
2023-05-15T01:10:45.345Z,22.30
2023-05-15T01:13:16.684Z,22.40
2023-05-15T01:15:45.130Z,22.50
2023-05-15T01:18:13.243Z,22.40
2023-05-15T01:20:56.573Z,22.40
2023-05-15T01:23:39.204Z,22.70
2023-05-15T01:26:54.842Z,22.30
2023-05-15T01:29:28.705Z,22.60
2023-05-15T01:32:04.557Z,22.40
2023-05-15T01:34:46.916Z,22.40
2023-05-15T01:37:18.275Z,22.30
2023-05-15T01:39:49.348Z,22.60
2023-05-15T01:42:20.542Z,22.20
2023-05-15T01:44:55.860Z,22.40
2023-05-15T01:47:33.077Z,22.40
2023-05-15T01:50:03.868Z,22.60
2023-05-15T01:52:35.800Z,22.10
2023-05-15T01:55:05.957Z,22.40
2023-05-15T01:57:35.688Z,22.50
2023-05-15T02:00:06.732Z,22.10
2023-05-15T02:02:35.041Z,22.20
2023-05-15T02:05:04.465Z,22.40
2023-05-15T02:07:33.770Z,22.70
2023-05-15T02:10:03.249Z,22.30
2023-05-15T02:12:32.648Z,22.60
2023-05-15T02:15:01.192Z,22.30
2023-05-15T02:17:30.971Z,22.40
2023-05-15T02:19:58.985Z,22.60
2023-05-15T02:22:26.954Z,22.60
2023-05-15T02:24:55.095Z,22.40
2023-05-15T02:27:28.368Z,22.50
2023-05-15T02:30:09.872Z,22.40
2023-05-15T02:32:50.718Z,22.80
2023-05-15T02:35:28.419Z,22.20
2023-05-15T02:38:01.625Z,22.40
2023-05-15T02:40:31.540Z,22.60
2023-05-15T02:43:00.486Z,22.20
2023-05-15T02:45:29.326Z,22.80
2023-05-15T02:47:59.771Z,22.50
2023-05-15T02:50:27.900Z,22.50
2023-05-15T02:53:03.779Z,22.70
2023-05-15T02:55:32.090Z,22.40
2023-05-15T02:58:00.437Z,22.30
2023-05-15T03:00:29.023Z,22.50
2023-05-15T03:02:58.392Z,22.20
2023-05-15T03:05:27.401Z,22.60
2023-05-15T03:07:55.749Z,22.40
2023-05-15T03:10:24.228Z,22.50
2023-05-15T03:12:52.286Z,22.40
2023-05-15T03:15:21.119Z,22.80
2023-05-15T03:17:49.173Z,22.80
2023-05-15T03:20:18.838Z,22.40
2023-05-15T03:22:46.824Z,22.50
2023-05-15T03:25:14.858Z,22.50
2023-05-15T03:27:42.894Z,22.40
2023-05-15T03:30:11.893Z,22.50
2023-05-15T03:32:39.870Z,22.60
2023-05-15T03:35:08.787Z,22.70
2023-05-15T03:37:38.158Z,22.50
2023-05-15T03:40:07.880Z,22.50
2023-05-15T03:42:35.860Z,22.30
2023-05-15T03:45:04.305Z,22.20
2023-05-15T03:47:32.363Z,22.40
2023-05-15T03:50:00.331Z,22.40
2023-05-15T03:52:28.566Z,22.50
2023-05-15T03:54:57.878Z,22.30
2023-05-15T03:57:25.887Z,22.20
2023-05-15T03:59:53.865Z,22.40
2023-05-15T04:02:21.972Z,22.40
2023-05-15T04:04:50.143Z,22.50
2023-05-15T04:07:18.828Z,22.40
2023-05-15T04:09:46.816Z,22.40
2023-05-15T04:12:16.098Z,22.40
2023-05-15T04:14:44.092Z,22.50
2023-05-15T04:17:12.052Z,22.50
2023-05-15T04:19:41.104Z,22.60
2023-05-15T04:22:10.576Z,22.40
2023-05-15T04:24:38.579Z,22.40
2023-05-15T04:27:06.955Z,22.80
2023-05-15T04:29:36.269Z,22.60
2023-05-15T04:32:04.527Z,22.40
2023-05-15T04:34:32.562Z,22.50
2023-05-15T04:37:01.106Z,22.30
2023-05-15T04:39:29.058Z,22.50
2023-05-15T04:41:57.104Z,22.50
2023-05-15T04:44:25.604Z,22.40
2023-05-15T04:46:54.904Z,22.60
2023-05-15T04:49:22.829Z,22.40
2023-05-15T04:51:50.866Z,22.60
2023-05-15T04:54:18.842Z,22.80
2023-05-15T04:56:46.922Z,22.50
2023-05-15T04:59:15.845Z,22.50
2023-05-15T05:01:43.942Z,22.80
2023-05-15T05:04:13.395Z,22.40
2023-05-15T05:06:41.390Z,22.70
2023-05-15T05:09:10.620Z,22.50
2023-05-15T05:11:43.410Z,22.50
2023-05-15T05:14:11.460Z,22.80
2023-05-15T05:16:39.974Z,22.60
2023-05-15T05:19:08.806Z,22.60
2023-05-15T05:21:38.167Z,22.60
2023-05-15T05:24:06.516Z,22.60
2023-05-15T05:26:34.546Z,22.90
2023-05-15T05:29:02.532Z,22.80
2023-05-15T05:31:30.547Z,22.80
2023-05-15T05:33:58.569Z,22.60
2023-05-15T05:36:26.559Z,22.60
2023-05-15T05:38:55.926Z,22.50
2023-05-15T05:41:23.912Z,22.60
2023-05-15T05:43:52.189Z,23.00
2023-05-15T05:46:21.148Z,22.50
2023-05-15T05:48:49.244Z,22.50
2023-05-15T05:51:17.271Z,22.50
2023-05-15T05:53:45.617Z,22.80
2023-05-15T05:56:15.066Z,22.70
2023-05-15T05:58:43.061Z,22.90
2023-05-15T06:01:11.341Z,21.60
2023-05-15T06:03:40.187Z,21.50
2023-05-15T06:06:08.323Z,20.80
2023-05-15T06:08:36.340Z,20.80
2023-05-15T06:11:04.418Z,20.80
2023-05-15T06:13:36.830Z,20.90
2023-05-15T06:16:06.440Z,21.30
2023-05-15T06:18:34.507Z,21.90
2023-05-15T06:21:02.651Z,22.10
2023-05-15T06:23:30.615Z,21.90
2023-05-15T06:25:58.919Z,22.40
2023-05-15T06:28:26.936Z,22.20
2023-05-15T06:30:56.403Z,21.90
2023-05-15T06:33:24.429Z,21.10
2023-05-15T06:35:52.508Z,21.30
2023-05-15T06:38:20.569Z,21.00
2023-05-15T06:40:48.528Z,21.00
2023-05-15T06:43:16.467Z,20.40
2023-05-15T06:45:44.395Z,20.40
2023-05-15T06:48:13.793Z,20.50
2023-05-15T06:50:41.823Z,20.70
2023-05-15T06:53:10.577Z,20.90
2023-05-15T06:55:39.245Z,21.30
2023-05-15T06:58:07.277Z,21.90
2023-05-15T07:00:35.250Z,21.70
2023-05-15T07:03:03.188Z,22.00
2023-05-15T07:05:32.779Z,21.80
2023-05-15T07:08:00.812Z,21.80
2023-05-15T07:10:28.840Z,22.10
2023-05-15T07:12:57.131Z,22.40
2023-05-15T07:15:25.161Z,22.30
2023-05-15T07:17:53.242Z,22.00
2023-05-15T07:20:21.504Z,22.20
2023-05-15T07:22:56.129Z,22.10
2023-05-15T07:25:25.261Z,21.90
2023-05-15T07:27:53.985Z,21.80
2023-05-15T07:30:22.861Z,22.30
2023-05-15T07:32:51.196Z,22.20
2023-05-15T07:35:19.405Z,22.40
2023-05-15T07:37:47.433Z,22.20
2023-05-15T07:40:16.796Z,22.40
2023-05-15T07:42:45.601Z,22.30
2023-05-15T07:45:13.628Z,22.40
2023-05-15T07:47:45.380Z,22.50
2023-05-15T07:50:13.760Z,22.40
2023-05-15T07:52:43.003Z,22.40
2023-05-15T07:55:11.647Z,22.60
2023-05-15T07:57:41.018Z,22.50
2023-05-15T08:00:13.334Z,22.50
2023-05-15T08:02:42.480Z,22.70
2023-05-15T08:05:10.835Z,22.50
2023-05-15T08:07:38.801Z,22.50
2023-05-15T08:10:08.422Z,22.30
2023-05-15T08:12:36.500Z,22.30
2023-05-15T08:15:07.490Z,22.70
2023-05-15T08:17:35.496Z,22.60
2023-05-15T08:20:04.971Z,22.60
2023-05-15T08:22:33.009Z,22.70
2023-05-15T08:25:03.744Z,22.70
2023-05-15T08:27:31.773Z,22.20
2023-05-15T08:29:59.830Z,22.40
2023-05-15T08:32:29.307Z,22.40
2023-05-15T08:34:57.974Z,22.70
2023-05-15T08:37:25.979Z,22.50
2023-05-15T08:39:53.934Z,22.70
2023-05-15T08:42:27.446Z,22.60
2023-05-15T08:44:56.687Z,22.30
2023-05-15T08:47:26.027Z,22.40
2023-05-15T08:50:04.565Z,22.90
2023-05-15T08:52:34.002Z,22.80
2023-05-15T08:55:03.268Z,22.50
2023-05-15T08:57:31.914Z,22.60
2023-05-15T09:00:01.359Z,22.90
2023-05-15T09:02:29.920Z,22.80
2023-05-15T09:04:59.370Z,23.10
2023-05-15T09:07:27.444Z,22.90
2023-05-15T09:09:56.943Z,23.00
2023-05-15T09:12:27.318Z,23.00
2023-05-15T09:15:10.683Z,23.00
2023-05-15T09:17:39.272Z,23.40
2023-05-15T09:20:26.450Z,23.40
2023-05-15T09:22:54.727Z,23.10
2023-05-15T09:25:38.504Z,23.10
2023-05-15T09:28:07.495Z,23.70
2023-05-15T09:30:38.617Z,23.50
2023-05-15T09:33:06.764Z,23.30
2023-05-15T09:35:38.446Z,23.70
2023-05-15T09:38:14.044Z,23.50
2023-05-15T09:40:42.101Z,23.80
2023-05-15T09:43:12.545Z,23.80
2023-05-15T09:45:40.720Z,24.10
2023-05-15T09:48:11.807Z,24.10
2023-05-15T09:50:43.514Z,23.80
2023-05-15T09:53:13.701Z,23.90
2023-05-15T09:55:43.997Z,23.90
2023-05-15T09:58:16.650Z,24.10
2023-05-15T10:00:48.249Z,24.00
2023-05-15T10:03:20.360Z,24.10
2023-05-15T10:05:49.943Z,24.00
2023-05-15T10:08:29.164Z,24.10
2023-05-15T10:11:01.515Z,23.60
2023-05-15T10:13:33.427Z,23.80
2023-05-15T10:16:03.809Z,23.60
2023-05-15T10:18:33.355Z,23.80
2023-05-15T10:21:04.256Z,23.30
2023-05-15T10:23:32.783Z,23.70
2023-05-15T10:26:05.549Z,23.60
2023-05-15T10:28:35.968Z,23.60
2023-05-15T10:31:05.761Z,23.40
2023-05-15T10:33:36.027Z,23.30
2023-05-15T10:36:06.644Z,23.70
2023-05-15T10:38:37.027Z,23.80
2023-05-15T10:41:16.476Z,23.90
2023-05-15T10:43:46.810Z,23.80
2023-05-15T10:46:16.106Z,24.10
2023-05-15T10:48:44.456Z,24.10
2023-05-15T10:51:18.960Z,24.10
2023-05-15T10:53:47.616Z,23.90
2023-05-15T10:56:17.521Z,24.20
2023-05-15T10:58:48.180Z,24.50
2023-05-15T11:01:31.981Z,24.20
2023-05-15T11:04:09.235Z,24.00
2023-05-15T11:06:39.654Z,24.40
2023-05-15T11:09:39.128Z,24.30
2023-05-15T11:12:09.768Z,24.30
2023-05-15T11:14:40.806Z,24.20
2023-05-15T11:17:10.730Z,24.40
2023-05-15T11:19:57.710Z,24.10
2023-05-15T11:22:32.876Z,24.00
2023-05-15T11:25:05.412Z,24.30
2023-05-15T11:27:39.648Z,24.50
2023-05-15T11:30:14.178Z,24.30
2023-05-15T11:32:51.610Z,24.30
2023-05-15T11:35:23.577Z,24.20
2023-05-15T11:37:55.424Z,24.30
2023-05-15T11:40:27.041Z,24.40
2023-05-15T11:43:01.567Z,24.20
2023-05-15T11:45:31.788Z,24.70
2023-05-15T11:48:03.544Z,24.40
2023-05-15T11:50:33.686Z,24.30
2023-05-15T11:53:06.268Z,24.50
2023-05-15T11:55:37.322Z,24.50
2023-05-15T11:58:07.289Z,24.40
2023-05-15T12:00:35.375Z,24.30
2023-05-15T12:03:04.652Z,24.40
2023-05-15T12:05:32.910Z,24.60
2023-05-15T12:08:03.844Z,24.40
2023-05-15T12:10:32.522Z,24.60
2023-05-15T12:13:01.071Z,24.70
2023-05-15T12:15:29.132Z,24.80
2023-05-15T12:17:57.131Z,24.80
2023-05-15T12:20:25.361Z,24.80
2023-05-15T12:22:53.514Z,24.50
2023-05-15T12:25:23.000Z,24.60
2023-05-15T12:27:51.058Z,24.50
2023-05-15T12:30:19.941Z,24.50
2023-05-15T12:32:48.518Z,24.40
2023-05-15T12:35:17.496Z,24.50
2023-05-15T12:37:46.615Z,24.80
2023-05-15T12:40:15.207Z,24.40
2023-05-15T12:42:46.403Z,24.80
2023-05-15T12:45:15.749Z,24.80
2023-05-15T12:47:45.291Z,24.50
2023-05-15T12:50:16.809Z,24.70
2023-05-15T12:52:51.914Z,24.80
2023-05-15T12:55:25.003Z,24.90
2023-05-15T12:57:57.728Z,25.00
2023-05-15T13:00:26.876Z,25.00
2023-05-15T13:02:57.014Z,24.50
2023-05-15T13:05:25.357Z,24.70
2023-05-15T13:07:53.946Z,24.80
2023-05-15T13:10:23.823Z,24.70
2023-05-15T13:12:56.656Z,24.60
2023-05-15T13:15:27.633Z,24.60
2023-05-15T13:17:59.534Z,24.90
2023-05-15T13:20:29.010Z,24.80
2023-05-15T13:22:57.159Z,24.70
2023-05-15T13:25:25.669Z,24.90
2023-05-15T13:27:58.680Z,25.00
2023-05-15T13:30:27.030Z,25.10
2023-05-15T13:32:55.926Z,24.60
2023-05-15T13:35:24.180Z,24.80
2023-05-15T13:37:52.277Z,24.60
2023-05-15T13:40:21.163Z,24.60
2023-05-15T13:42:50.086Z,25.10
2023-05-15T13:45:19.491Z,24.80
2023-05-15T13:47:47.683Z,24.70
2023-05-15T13:50:16.948Z,24.80
2023-05-15T13:52:46.488Z,24.90
2023-05-15T13:55:14.625Z,25.00
2023-05-15T13:57:45.246Z,25.20
2023-05-15T14:00:15.045Z,24.90
2023-05-15T14:02:45.365Z,25.10
2023-05-15T14:05:15.715Z,24.70
2023-05-15T14:07:44.005Z,25.00
2023-05-15T14:10:13.617Z,24.90
2023-05-15T14:12:43.117Z,24.80
2023-05-15T14:15:12.669Z,25.00
2023-05-15T14:17:40.979Z,25.10
2023-05-15T14:20:12.419Z,25.30
2023-05-15T14:22:41.320Z,25.10
2023-05-15T14:25:10.539Z,25.00
2023-05-15T14:27:38.725Z,25.00
2023-05-15T14:30:08.552Z,25.10
2023-05-15T14:32:36.565Z,25.10
2023-05-15T14:35:05.480Z,24.60
2023-05-15T14:37:34.825Z,25.10
2023-05-15T14:40:04.725Z,24.90
2023-05-15T14:42:32.769Z,24.60
2023-05-15T14:45:01.239Z,24.90
2023-05-15T14:47:29.849Z,25.10
2023-05-15T14:49:58.241Z,24.80
2023-05-15T14:52:26.265Z,24.90
2023-05-15T14:55:07.885Z,24.50
2023-05-15T14:57:37.647Z,25.00
2023-05-15T15:00:08.010Z,24.60
2023-05-15T15:02:36.119Z,25.00
2023-05-15T15:05:05.640Z,24.90
2023-05-15T15:08:02.296Z,25.20
2023-05-15T15:10:33.311Z,25.00
2023-05-15T15:13:01.685Z,25.20
2023-05-15T15:15:30.765Z,24.90
2023-05-15T15:17:59.532Z,25.10
2023-05-15T15:20:29.098Z,24.80
2023-05-15T15:22:57.703Z,25.00
2023-05-15T15:25:26.136Z,25.10
2023-05-15T15:27:55.663Z,24.80
2023-05-15T15:30:23.806Z,24.90
2023-05-15T15:32:52.102Z,24.80
2023-05-15T15:35:20.201Z,25.10
2023-05-15T15:37:48.179Z,24.70
2023-05-15T15:40:16.387Z,25.00
2023-05-15T15:42:44.384Z,25.00
2023-05-15T15:45:13.740Z,25.20
2023-05-15T15:47:41.826Z,24.90
2023-05-15T15:50:10.754Z,25.10
2023-05-15T15:52:38.725Z,24.60
2023-05-15T15:55:08.639Z,25.10
2023-05-15T15:57:38.050Z,25.00
2023-05-15T16:00:08.094Z,25.10
2023-05-15T16:02:37.848Z,25.00
2023-05-15T16:05:07.651Z,24.60
2023-05-15T16:07:36.226Z,24.50
2023-05-15T16:10:12.266Z,24.70
2023-05-15T16:12:42.168Z,24.90
2023-05-15T16:15:21.818Z,24.80
2023-05-15T16:17:54.760Z,24.30
2023-05-15T16:20:23.832Z,24.90
2023-05-15T16:22:52.047Z,24.50
2023-05-15T16:25:20.042Z,24.70
2023-05-15T16:27:48.562Z,24.50
2023-05-15T16:30:16.736Z,24.60
2023-05-15T16:32:44.838Z,24.90
2023-05-15T16:35:14.169Z,24.40
2023-05-15T16:37:42.115Z,24.50
2023-05-15T16:40:11.083Z,24.60
2023-05-15T16:42:39.551Z,24.50
2023-05-15T16:45:09.363Z,24.80
2023-05-15T16:47:39.037Z,24.80
2023-05-15T16:50:08.623Z,24.50
2023-05-15T16:52:39.013Z,24.50
2023-05-15T16:55:08.308Z,24.60
2023-05-15T16:57:36.273Z,24.70
2023-05-15T17:00:04.845Z,24.70
2023-05-15T17:02:33.052Z,24.80
2023-05-15T17:05:01.269Z,24.70
2023-05-15T17:07:29.260Z,24.60
2023-05-15T17:09:58.570Z,24.60
2023-05-15T17:12:26.608Z,24.70
2023-05-15T17:14:54.650Z,24.90
2023-05-15T17:17:23.246Z,24.40
2023-05-15T17:19:51.273Z,24.70
2023-05-15T17:22:19.529Z,24.60
2023-05-15T17:24:50.939Z,25.00
2023-05-15T17:27:21.534Z,24.90
2023-05-15T17:29:49.844Z,25.30
2023-05-15T17:32:19.183Z,24.80
2023-05-15T17:34:47.763Z,24.70
2023-05-15T17:37:15.895Z,24.70
2023-05-15T17:39:44.226Z,24.60
2023-05-15T17:42:12.376Z,24.50
2023-05-15T17:44:41.732Z,24.90
2023-05-15T17:47:10.570Z,24.40
2023-05-15T17:49:39.369Z,24.50
2023-05-15T17:52:08.644Z,24.50
2023-05-15T17:54:36.750Z,25.00
2023-05-15T17:57:05.310Z,24.50
2023-05-15T17:59:33.237Z,24.80
2023-05-15T18:02:02.712Z,24.90
2023-05-15T18:04:30.847Z,24.70
2023-05-15T18:06:58.822Z,25.10
2023-05-15T18:09:27.033Z,24.80
2023-05-15T18:11:55.048Z,24.80
2023-05-15T18:14:23.042Z,24.80
2023-05-15T18:16:51.211Z,24.50
2023-05-15T18:19:20.650Z,24.80
2023-05-15T18:21:48.646Z,24.50
2023-05-15T18:24:16.667Z,24.50
2023-05-15T18:26:44.971Z,24.40
2023-05-15T18:29:12.993Z,24.30
2023-05-15T18:31:41.084Z,24.30
2023-05-15T18:34:09.129Z,24.30
2023-05-15T18:36:38.479Z,24.30
2023-05-15T18:39:07.182Z,24.30
2023-05-15T18:41:35.243Z,24.20
2023-05-15T18:44:03.290Z,24.20
2023-05-15T18:46:31.730Z,24.30
2023-05-15T18:49:00.010Z,24.10
2023-05-15T18:51:28.096Z,24.20
2023-05-15T18:53:57.427Z,24.20
2023-05-15T18:56:25.878Z,24.10
2023-05-15T18:58:55.116Z,24.40
2023-05-15T19:01:23.217Z,24.50
2023-05-15T19:03:51.297Z,24.50
2023-05-15T19:06:20.099Z,24.10
2023-05-15T19:08:48.763Z,24.50
2023-05-15T19:11:18.392Z,24.50
2023-05-15T19:13:46.597Z,24.50
2023-05-15T19:16:14.603Z,24.20
2023-05-15T19:18:42.651Z,24.20
2023-05-15T19:21:10.853Z,24.10
2023-05-15T19:23:38.906Z,24.30
2023-05-15T19:26:06.895Z,24.30
2023-05-15T19:28:36.332Z,24.30
2023-05-15T19:31:05.367Z,24.30
2023-05-15T19:33:34.584Z,24.40
2023-05-15T19:36:02.796Z,24.20
2023-05-15T19:38:30.823Z,24.10
2023-05-15T19:40:59.290Z,24.30
2023-05-15T19:43:27.429Z,24.50
2023-05-15T19:45:56.809Z,24.10
2023-05-15T19:48:25.022Z,24.10
2023-05-15T19:50:53.006Z,24.10
2023-05-15T19:53:21.551Z,24.20
2023-05-15T19:55:49.679Z,24.10
2023-05-15T19:58:19.154Z,24.10
2023-05-15T20:00:48.366Z,23.80
2023-05-15T20:03:17.743Z,23.90
2023-05-15T20:05:45.924Z,24.20
2023-05-15T20:08:14.756Z,23.60
2023-05-15T20:10:42.765Z,24.10
2023-05-15T20:13:10.826Z,24.10
2023-05-15T20:15:39.700Z,24.10
2023-05-15T20:18:08.434Z,23.80
2023-05-15T20:20:38.050Z,23.70
2023-05-15T20:23:06.219Z,24.20
2023-05-15T20:25:34.242Z,23.80
2023-05-15T20:28:03.337Z,23.70
2023-05-15T20:30:31.324Z,24.00
2023-05-15T20:32:59.472Z,23.80
2023-05-15T20:35:27.949Z,23.90
2023-05-15T20:37:58.376Z,23.80
2023-05-15T20:40:27.215Z,23.80
2023-05-15T20:42:56.851Z,23.90
2023-05-15T20:45:25.791Z,24.00
2023-05-15T20:47:53.752Z,23.50
2023-05-15T20:50:21.800Z,23.60
2023-05-15T20:52:49.777Z,23.50
2023-05-15T20:55:20.134Z,23.70
2023-05-15T20:57:50.221Z,23.50
2023-05-15T21:00:19.512Z,23.50
2023-05-15T21:02:48.021Z,23.90
2023-05-15T21:05:16.225Z,23.80
2023-05-15T21:07:44.210Z,23.80
2023-05-15T21:10:12.588Z,23.80
2023-05-15T21:12:42.110Z,23.70
2023-05-15T21:15:11.344Z,23.90
2023-05-15T21:17:39.665Z,23.70
2023-05-15T21:20:09.705Z,23.40
2023-05-15T21:22:37.790Z,23.60
2023-05-15T21:25:07.171Z,23.80
2023-05-15T21:27:35.181Z,23.40
2023-05-15T21:30:05.923Z,23.60
2023-05-15T21:32:33.853Z,23.70
2023-05-15T21:35:01.835Z,24.00
2023-05-15T21:37:29.826Z,23.60
2023-05-15T21:39:57.818Z,23.60
2023-05-15T21:42:26.348Z,23.60
2023-05-15T21:44:54.361Z,23.50
2023-05-15T21:47:23.698Z,23.50
2023-05-15T21:49:52.003Z,23.30
2023-05-15T21:52:19.950Z,23.70
2023-05-15T21:54:47.897Z,23.70
2023-05-15T21:57:16.083Z,23.70
2023-05-15T21:59:44.006Z,23.60
2023-05-15T22:02:12.236Z,23.70
2023-05-15T22:04:41.940Z,23.70
2023-05-15T22:07:09.872Z,23.50
2023-05-15T22:09:37.911Z,23.30
2023-05-15T22:12:06.593Z,23.50
2023-05-15T22:14:35.115Z,23.60
2023-05-15T22:17:03.212Z,23.50
2023-05-15T22:19:33.483Z,23.40
2023-05-15T22:22:04.450Z,23.80
2023-05-15T22:24:32.486Z,23.30
2023-05-15T22:27:00.594Z,23.50
2023-05-15T22:29:28.525Z,23.70
2023-05-15T22:31:57.355Z,23.30
2023-05-15T22:34:28.707Z,23.50
2023-05-15T22:36:56.816Z,23.60
2023-05-15T22:39:26.197Z,23.60
2023-05-15T22:41:54.118Z,23.60
2023-05-15T22:44:22.354Z,23.20
2023-05-15T22:46:51.394Z,23.80
2023-05-15T22:49:25.293Z,23.50
2023-05-15T22:51:54.611Z,23.10
2023-05-15T22:54:23.559Z,23.30
2023-05-15T22:56:53.589Z,23.60
2023-05-15T22:59:22.074Z,23.00
2023-05-15T23:01:51.317Z,23.30
2023-05-15T23:04:19.721Z,23.30
2023-05-15T23:06:47.774Z,23.50
2023-05-15T23:09:15.743Z,23.50
2023-05-15T23:11:43.751Z,23.50
2023-05-15T23:14:15.723Z,23.10
2023-05-15T23:16:44.143Z,23.40
2023-05-15T23:19:12.253Z,23.30
2023-05-15T23:21:40.612Z,23.20
2023-05-15T23:24:08.720Z,23.40
2023-05-15T23:26:36.709Z,23.40
2023-05-15T23:29:06.101Z,23.10
2023-05-15T23:31:35.805Z,23.30
2023-05-15T23:34:03.945Z,23.50
2023-05-15T23:36:32.485Z,23.40
2023-05-15T23:39:00.679Z,23.00
2023-05-15T23:41:28.733Z,23.00
2023-05-15T23:43:56.820Z,23.10
2023-05-15T23:46:27.827Z,23.20
2023-05-15T23:48:57.307Z,23.00
2023-05-15T23:51:25.537Z,23.30
2023-05-15T23:53:53.646Z,23.00
2023-05-15T23:56:23.135Z,23.00
2023-05-15T23:58:51.257Z,23.20
